sensor_id;sensor_type;location;lat;lon;timestamp;temperature;humidity
15143;DHT22;7672;50.834;6.286;2022-09-09T00:01:54;18.40;99.90
15143;DHT22;7672;50.834;6.286;2022-09-09T00:04:31;18.30;99.90
15143;DHT22;7672;50.834;6.286;2022-09-09T00:09:44;18.20;99.90
15143;DHT22;7672;50.834;6.286;2022-09-09T00:12:36;18.10;99.90
15143;DHT22;7672;50.834;6.286;2022-09-09T00:15:20;18.10;99.90
15143;DHT22;7672;50.834;6.286;2022-09-09T00:20:58;18.00;99.90
15143;DHT22;7672;50.834;6.286;2022-09-09T00:23:35;17.90;99.90
15143;DHT22;7672;50.834;6.286;2022-09-09T00:26:23;17.90;99.90
15143;DHT22;7672;50.834;6.286;2022-09-09T00:32:11;17.80;99.90
15143;DHT22;7672;50.834;6.286;2022-09-09T00:34:53;17.70;99.90
15143;DHT22;7672;50.834;6.286;2022-09-09T00:37:26;17.70;99.90
15143;DHT22;7672;50.834;6.286;2022-09-09T00:39:58;17.60;99.90
15143;DHT22;7672;50.834;6.286;2022-09-09T00:42:42;17.70;99.90
15143;DHT22;7672;50.834;6.286;2022-09-09T00:47:54;17.70;99.90
15143;DHT22;7672;50.834;6.286;2022-09-09T00:53:17;17.80;99.90
15143;DHT22;7672;50.834;6.286;2022-09-09T00:56:14;17.80;99.90
15143;DHT22;7672;50.834;6.286;2022-09-09T00:59:00;17.80;99.90
15143;DHT22;7672;50.834;6.286;2022-09-09T01:01:54;17.80;99.90
15143;DHT22;7672;50.834;6.286;2022-09-09T01:04:33;17.90;99.90
15143;DHT22;7672;50.834;6.286;2022-09-09T01:07:12;18.00;99.90
15143;DHT22;7672;50.834;6.286;2022-09-09T01:09:56;18.00;99.90
15143;DHT22;7672;50.834;6.286;2022-09-09T01:15:16;18.00;99.90
15143;DHT22;7672;50.834;6.286;2022-09-09T01:20:49;18.00;99.90
15143;DHT22;7672;50.834;6.286;2022-09-09T01:23:37;18.10;99.90
15143;DHT22;7672;50.834;6.286;2022-09-09T01:26:23;18.10;99.90
15143;DHT22;7672;50.834;6.286;2022-09-09T01:28:54;18.10;99.90
15143;DHT22;7672;50.834;6.286;2022-09-09T01:31:57;18.40;99.90
15143;DHT22;7672;50.834;6.286;2022-09-09T01:34:33;18.10;99.90
15143;DHT22;7672;50.834;6.286;2022-09-09T01:37:08;18.40;99.90
15143;DHT22;7672;50.834;6.286;2022-09-09T01:39:39;18.10;99.90
15143;DHT22;7672;50.834;6.286;2022-09-09T01:42:12;18.40;99.90
15143;DHT22;7672;50.834;6.286;2022-09-09T01:44:41;18.20;99.90
15143;DHT22;7672;50.834;6.286;2022-09-09T01:47:08;18.20;99.90
15143;DHT22;7672;50.834;6.286;2022-09-09T01:49:35;18.20;99.90
15143;DHT22;7672;50.834;6.286;2022-09-09T01:52:02;18.20;99.90
15143;DHT22;7672;50.834;6.286;2022-09-09T01:54:31;18.30;99.90
15143;DHT22;7672;50.834;6.286;2022-09-09T02:08:15;18.30;99.90
15143;DHT22;7672;50.834;6.286;2022-09-09T02:10:55;18.70;99.90
15143;DHT22;7672;50.834;6.286;2022-09-09T02:13:29;18.30;99.90
15143;DHT22;7672;50.834;6.286;2022-09-09T02:16:26;18.70;99.90
15143;DHT22;7672;50.834;6.286;2022-09-09T02:19:08;18.40;99.90
15143;DHT22;7672;50.834;6.286;2022-09-09T02:21:41;18.40;99.90
15143;DHT22;7672;50.834;6.286;2022-09-09T02:24:12;18.60;99.90
15143;DHT22;7672;50.834;6.286;2022-09-09T02:26:43;18.50;99.90
15143;DHT22;7672;50.834;6.286;2022-09-09T02:29:19;18.60;99.90
15143;DHT22;7672;50.834;6.286;2022-09-09T02:31:50;18.80;99.90
15143;DHT22;7672;50.834;6.286;2022-09-09T02:34:21;18.50;99.90
15143;DHT22;7672;50.834;6.286;2022-09-09T02:36:52;18.50;99.90
15143;DHT22;7672;50.834;6.286;2022-09-09T02:39:21;18.50;99.90
15143;DHT22;7672;50.834;6.286;2022-09-09T02:41:48;18.60;99.90
15143;DHT22;7672;50.834;6.286;2022-09-09T02:44:17;18.20;99.90
15143;DHT22;7672;50.834;6.286;2022-09-09T02:52:38;18.50;99.90
15143;DHT22;7672;50.834;6.286;2022-09-09T02:57:55;18.50;99.90
15143;DHT22;7672;50.834;6.286;2022-09-09T03:00:25;18.50;99.90
15143;DHT22;7672;50.834;6.286;2022-09-09T03:02:54;18.50;99.90
15143;DHT22;7672;50.834;6.286;2022-09-09T03:05:22;18.60;99.90
15143;DHT22;7672;50.834;6.286;2022-09-09T03:07:50;18.90;99.90
15143;DHT22;7672;50.834;6.286;2022-09-09T03:10:17;18.70;99.90
15143;DHT22;7672;50.834;6.286;2022-09-09T03:12:44;18.60;99.90
15143;DHT22;7672;50.834;6.286;2022-09-09T03:15:11;18.50;99.90
15143;DHT22;7672;50.834;6.286;2022-09-09T03:17:38;18.80;99.90
15143;DHT22;7672;50.834;6.286;2022-09-09T03:20:05;19.00;99.90
15143;DHT22;7672;50.834;6.286;2022-09-09T03:22:32;18.60;99.90
15143;DHT22;7672;50.834;6.286;2022-09-09T03:24:59;18.90;99.90
15143;DHT22;7672;50.834;6.286;2022-09-09T03:27:26;18.60;99.90
15143;DHT22;7672;50.834;6.286;2022-09-09T03:29:53;18.70;99.90
15143;DHT22;7672;50.834;6.286;2022-09-09T03:32:20;18.60;99.90
15143;DHT22;7672;50.834;6.286;2022-09-09T03:34:48;18.80;99.90
15143;DHT22;7672;50.834;6.286;2022-09-09T03:37:16;18.50;99.90
15143;DHT22;7672;50.834;6.286;2022-09-09T03:39:44;19.00;99.90
15143;DHT22;7672;50.834;6.286;2022-09-09T03:42:15;18.50;99.90
15143;DHT22;7672;50.834;6.286;2022-09-09T03:44:48;18.90;99.90
15143;DHT22;7672;50.834;6.286;2022-09-09T03:47:20;18.50;99.90
15143;DHT22;7672;50.834;6.286;2022-09-09T03:49:50;18.80;99.90
15143;DHT22;7672;50.834;6.286;2022-09-09T03:52:17;18.60;99.90
15143;DHT22;7672;50.834;6.286;2022-09-09T03:54:49;18.50;99.90
15143;DHT22;7672;50.834;6.286;2022-09-09T03:57:15;18.50;99.90
15143;DHT22;7672;50.834;6.286;2022-09-09T03:59:43;18.50;99.90
15143;DHT22;7672;50.834;6.286;2022-09-09T04:02:10;18.40;99.90
15143;DHT22;7672;50.834;6.286;2022-09-09T04:04:37;18.40;99.90
15143;DHT22;7672;50.834;6.286;2022-09-09T04:07:04;18.40;99.90
15143;DHT22;7672;50.834;6.286;2022-09-09T04:09:33;18.40;99.90
15143;DHT22;7672;50.834;6.286;2022-09-09T04:12:00;18.40;99.90
15143;DHT22;7672;50.834;6.286;2022-09-09T04:14:27;18.40;99.90
15143;DHT22;7672;50.834;6.286;2022-09-09T04:16:55;18.50;99.90
15143;DHT22;7672;50.834;6.286;2022-09-09T04:19:23;18.30;99.90
15143;DHT22;7672;50.834;6.286;2022-09-09T04:21:51;18.70;99.90
15143;DHT22;7672;50.834;6.286;2022-09-09T04:24:18;18.30;99.90
15143;DHT22;7672;50.834;6.286;2022-09-09T04:26:45;18.30;99.90
15143;DHT22;7672;50.834;6.286;2022-09-09T04:29:13;18.30;99.90
15143;DHT22;7672;50.834;6.286;2022-09-09T04:31:40;18.40;99.90
15143;DHT22;7672;50.834;6.286;2022-09-09T04:34:09;18.40;99.90
15143;DHT22;7672;50.834;6.286;2022-09-09T04:36:36;18.60;99.90
15143;DHT22;7672;50.834;6.286;2022-09-09T04:39:02;18.80;99.90
15143;DHT22;7672;50.834;6.286;2022-09-09T04:41:29;18.40;99.90
15143;DHT22;7672;50.834;6.286;2022-09-09T04:43:58;18.70;99.90
15143;DHT22;7672;50.834;6.286;2022-09-09T04:46:27;18.30;99.90
15143;DHT22;7672;50.834;6.286;2022-09-09T04:48:54;18.80;99.90
15143;DHT22;7672;50.834;6.286;2022-09-09T04:51:20;18.40;99.90
15143;DHT22;7672;50.834;6.286;2022-09-09T04:53:48;18.80;99.90
15143;DHT22;7672;50.834;6.286;2022-09-09T04:56:18;18.40;99.90
15143;DHT22;7672;50.834;6.286;2022-09-09T04:58:45;18.40;99.90
15143;DHT22;7672;50.834;6.286;2022-09-09T05:01:15;18.50;99.90
15143;DHT22;7672;50.834;6.286;2022-09-09T05:03:47;18.60;99.90
15143;DHT22;7672;50.834;6.286;2022-09-09T05:06:16;18.40;99.90
15143;DHT22;7672;50.834;6.286;2022-09-09T05:08:45;18.60;99.90
15143;DHT22;7672;50.834;6.286;2022-09-09T05:11:24;18.40;99.90
15143;DHT22;7672;50.834;6.286;2022-09-09T05:13:53;18.50;99.90
15143;DHT22;7672;50.834;6.286;2022-09-09T05:16:21;18.80;99.90
15143;DHT22;7672;50.834;6.286;2022-09-09T05:18:49;18.70;99.90
15143;DHT22;7672;50.834;6.286;2022-09-09T05:21:22;18.50;99.90
15143;DHT22;7672;50.834;6.286;2022-09-09T05:23:50;18.40;99.90
15143;DHT22;7672;50.834;6.286;2022-09-09T05:26:21;18.50;99.90
15143;DHT22;7672;50.834;6.286;2022-09-09T05:28:48;18.90;99.90
15143;DHT22;7672;50.834;6.286;2022-09-09T05:31:17;18.50;99.90
15143;DHT22;7672;50.834;6.286;2022-09-09T05:33:46;18.50;99.90
15143;DHT22;7672;50.834;6.286;2022-09-09T05:36:16;18.50;99.90
15143;DHT22;7672;50.834;6.286;2022-09-09T05:38:45;18.90;99.90
15143;DHT22;7672;50.834;6.286;2022-09-09T05:41:12;19.00;99.90
15143;DHT22;7672;50.834;6.286;2022-09-09T05:43:43;18.60;99.90
15143;DHT22;7672;50.834;6.286;2022-09-09T05:46:15;18.70;99.90
15143;DHT22;7672;50.834;6.286;2022-09-09T05:48:45;18.90;99.90
15143;DHT22;7672;50.834;6.286;2022-09-09T05:51:16;19.10;99.90
15143;DHT22;7672;50.834;6.286;2022-09-09T05:53:45;19.10;99.90
15143;DHT22;7672;50.834;6.286;2022-09-09T05:56:15;18.90;99.90
15143;DHT22;7672;50.834;6.286;2022-09-09T05:58:49;19.00;99.90
15143;DHT22;7672;50.834;6.286;2022-09-09T06:01:18;18.80;99.90
15143;DHT22;7672;50.834;6.286;2022-09-09T06:03:48;19.20;99.90
15143;DHT22;7672;50.834;6.286;2022-09-09T06:06:17;19.40;99.90
15143;DHT22;7672;50.834;6.286;2022-09-09T06:08:54;19.40;99.90
15143;DHT22;7672;50.834;6.286;2022-09-09T06:11:26;19.00;99.90
15143;DHT22;7672;50.834;6.286;2022-09-09T06:13:54;19.30;99.90
15143;DHT22;7672;50.834;6.286;2022-09-09T06:16:24;19.50;99.90
15143;DHT22;7672;50.834;6.286;2022-09-09T06:18:54;19.30;99.90
15143;DHT22;7672;50.834;6.286;2022-09-09T06:21:27;19.50;99.90
15143;DHT22;7672;50.834;6.286;2022-09-09T06:23:56;19.50;99.90
15143;DHT22;7672;50.834;6.286;2022-09-09T06:26:35;19.90;99.90
15143;DHT22;7672;50.834;6.286;2022-09-09T06:29:04;19.60;99.90
15143;DHT22;7672;50.834;6.286;2022-09-09T06:31:33;20.10;99.90
15143;DHT22;7672;50.834;6.286;2022-09-09T06:34:03;19.80;99.90
15143;DHT22;7672;50.834;6.286;2022-09-09T06:36:36;19.90;99.90
15143;DHT22;7672;50.834;6.286;2022-09-09T06:39:05;20.00;99.90
15143;DHT22;7672;50.834;6.286;2022-09-09T06:41:39;20.10;99.90
15143;DHT22;7672;50.834;6.286;2022-09-09T06:44:07;20.30;99.90
15143;DHT22;7672;50.834;6.286;2022-09-09T06:46:34;20.60;99.90
15143;DHT22;7672;50.834;6.286;2022-09-09T06:49:02;20.60;99.90
15143;DHT22;7672;50.834;6.286;2022-09-09T06:51:32;21.00;99.90
15143;DHT22;7672;50.834;6.286;2022-09-09T06:54:02;21.30;99.90
15143;DHT22;7672;50.834;6.286;2022-09-09T06:56:34;21.60;99.90
15143;DHT22;7672;50.834;6.286;2022-09-09T06:59:07;22.00;99.90
15143;DHT22;7672;50.834;6.286;2022-09-09T07:01:40;22.60;99.90
15143;DHT22;7672;50.834;6.286;2022-09-09T07:04:08;22.90;99.90
15143;DHT22;7672;50.834;6.286;2022-09-09T07:06:39;23.50;99.90
15143;DHT22;7672;50.834;6.286;2022-09-09T07:09:11;23.90;99.90
15143;DHT22;7672;50.834;6.286;2022-09-09T07:11:40;24.20;99.90
15143;DHT22;7672;50.834;6.286;2022-09-09T07:14:14;24.50;99.90
15143;DHT22;7672;50.834;6.286;2022-09-09T07:16:43;24.80;99.90
15143;DHT22;7672;50.834;6.286;2022-09-09T07:19:13;24.90;99.90
15143;DHT22;7672;50.834;6.286;2022-09-09T07:21:41;25.30;99.90
15143;DHT22;7672;50.834;6.286;2022-09-09T07:24:10;25.20;99.90
15143;DHT22;7672;50.834;6.286;2022-09-09T07:26:39;25.10;99.90
15143;DHT22;7672;50.834;6.286;2022-09-09T07:29:07;25.30;99.90
15143;DHT22;7672;50.834;6.286;2022-09-09T07:31:36;25.20;99.90
15143;DHT22;7672;50.834;6.286;2022-09-09T07:34:06;25.50;99.90
15143;DHT22;7672;50.834;6.286;2022-09-09T07:36:35;25.40;99.90
15143;DHT22;7672;50.834;6.286;2022-09-09T07:39:07;25.40;99.90
15143;DHT22;7672;50.834;6.286;2022-09-09T07:41:53;25.40;99.90
15143;DHT22;7672;50.834;6.286;2022-09-09T07:44:24;25.40;99.90
15143;DHT22;7672;50.834;6.286;2022-09-09T07:46:55;25.40;99.90
15143;DHT22;7672;50.834;6.286;2022-09-09T07:49:22;25.40;99.90
15143;DHT22;7672;50.834;6.286;2022-09-09T07:51:58;25.30;99.90
15143;DHT22;7672;50.834;6.286;2022-09-09T07:54:25;25.40;99.90
15143;DHT22;7672;50.834;6.286;2022-09-09T07:56:52;25.40;99.90
15143;DHT22;7672;50.834;6.286;2022-09-09T07:59:19;25.70;99.90
15143;DHT22;7672;50.834;6.286;2022-09-09T08:01:49;25.50;99.90
15143;DHT22;7672;50.834;6.286;2022-09-09T08:04:22;25.50;99.90
15143;DHT22;7672;50.834;6.286;2022-09-09T08:06:53;25.80;99.90
15143;DHT22;7672;50.834;6.286;2022-09-09T08:09:25;25.70;99.90
15143;DHT22;7672;50.834;6.286;2022-09-09T08:11:56;25.80;99.90
15143;DHT22;7672;50.834;6.286;2022-09-09T08:14:24;26.00;99.90
15143;DHT22;7672;50.834;6.286;2022-09-09T08:16:52;26.30;99.90
15143;DHT22;7672;50.834;6.286;2022-09-09T08:19:21;26.70;99.90
15143;DHT22;7672;50.834;6.286;2022-09-09T08:21:51;26.90;99.90
15143;DHT22;7672;50.834;6.286;2022-09-09T08:24:18;27.20;99.90
15143;DHT22;7672;50.834;6.286;2022-09-09T08:26:47;27.40;99.90
15143;DHT22;7672;50.834;6.286;2022-09-09T08:29:16;27.80;99.90
15143;DHT22;7672;50.834;6.286;2022-09-09T08:31:54;27.90;99.90
15143;DHT22;7672;50.834;6.286;2022-09-09T08:34:24;27.90;99.90
15143;DHT22;7672;50.834;6.286;2022-09-09T08:36:54;27.80;99.90
15143;DHT22;7672;50.834;6.286;2022-09-09T08:39:21;27.60;99.90
15143;DHT22;7672;50.834;6.286;2022-09-09T08:42:08;27.50;99.90
15143;DHT22;7672;50.834;6.286;2022-09-09T08:45:12;27.40;99.90
15143;DHT22;7672;50.834;6.286;2022-09-09T08:47:54;27.20;99.90
15143;DHT22;7672;50.834;6.286;2022-09-09T08:50:39;27.00;99.90
15143;DHT22;7672;50.834;6.286;2022-09-09T08:55:39;26.70;99.90
15143;DHT22;7672;50.834;6.286;2022-09-09T08:58:26;26.40;99.90
15143;DHT22;7672;50.834;6.286;2022-09-09T09:04:21;26.10;99.90
15143;DHT22;7672;50.834;6.286;2022-09-09T09:13:38;26.70;99.90
15143;DHT22;7672;50.834;6.286;2022-09-09T09:19:17;27.40;99.90
15143;DHT22;7672;50.834;6.286;2022-09-09T09:24:55;28.60;99.90
15143;DHT22;7672;50.834;6.286;2022-09-09T09:31:10;29.90;99.90
15143;DHT22;7672;50.834;6.286;2022-09-09T09:33:48;30.40;99.90
15143;DHT22;7672;50.834;6.286;2022-09-09T09:36:18;30.80;99.90
15143;DHT22;7672;50.834;6.286;2022-09-09T09:38:59;31.10;99.90
15143;DHT22;7672;50.834;6.286;2022-09-09T09:41:48;31.50;99.90
15143;DHT22;7672;50.834;6.286;2022-09-09T09:44:29;31.80;99.90
15143;DHT22;7672;50.834;6.286;2022-09-09T09:49:54;32.40;99.20
15143;DHT22;7672;50.834;6.286;2022-09-09T09:52:24;32.60;97.40
15143;DHT22;7672;50.834;6.286;2022-09-09T09:54:53;32.90;96.60
15143;DHT22;7672;50.834;6.286;2022-09-09T09:57:29;33.00;96.20
15143;DHT22;7672;50.834;6.286;2022-09-09T10:00:22;33.10;96.00
15143;DHT22;7672;50.834;6.286;2022-09-09T10:02:50;33.00;95.80
15143;DHT22;7672;50.834;6.286;2022-09-09T10:05:24;33.00;94.80
15143;DHT22;7672;50.834;6.286;2022-09-09T10:08:04;32.90;93.70
15143;DHT22;7672;50.834;6.286;2022-09-09T10:13:51;32.70;93.00
15143;DHT22;7672;50.834;6.286;2022-09-09T10:19:47;32.10;91.50
15143;DHT22;7672;50.834;6.286;2022-09-09T10:22:28;31.70;91.20
15143;DHT22;7672;50.834;6.286;2022-09-09T10:25:21;31.30;92.60
15143;DHT22;7672;50.834;6.286;2022-09-09T10:28:15;30.60;92.90
15143;DHT22;7672;50.834;6.286;2022-09-09T10:40:11;29.10;95.40
15143;DHT22;7672;50.834;6.286;2022-09-09T10:46:05;28.70;96.20
15143;DHT22;7672;50.834;6.286;2022-09-09T10:49:13;28.70;96.00
15143;DHT22;7672;50.834;6.286;2022-09-09T10:52:14;28.70;97.40
15143;DHT22;7672;50.834;6.286;2022-09-09T10:55:11;28.80;96.90
15143;DHT22;7672;50.834;6.286;2022-09-09T10:57:50;28.90;96.60
15143;DHT22;7672;50.834;6.286;2022-09-09T11:00:22;28.90;96.50
15143;DHT22;7672;50.834;6.286;2022-09-09T11:03:03;28.80;96.10
15143;DHT22;7672;50.834;6.286;2022-09-09T11:05:52;28.70;96.10
15143;DHT22;7672;50.834;6.286;2022-09-09T11:08:32;28.50;96.20
15143;DHT22;7672;50.834;6.286;2022-09-09T11:11:13;28.30;96.70
15143;DHT22;7672;50.834;6.286;2022-09-09T11:14:03;28.10;97.00
15143;DHT22;7672;50.834;6.286;2022-09-09T11:16:44;27.90;96.90
15143;DHT22;7672;50.834;6.286;2022-09-09T11:22:23;27.50;97.80
15143;DHT22;7672;50.834;6.286;2022-09-09T11:25:14;27.40;98.10
15143;DHT22;7672;50.834;6.286;2022-09-09T11:42:36;27.90;99.40
15143;DHT22;7672;50.834;6.286;2022-09-09T11:45:25;27.80;99.90
15143;DHT22;7672;50.834;6.286;2022-09-09T11:47:59;27.80;99.90
15143;DHT22;7672;50.834;6.286;2022-09-09T11:50:37;27.70;99.80
15143;DHT22;7672;50.834;6.286;2022-09-09T11:55:45;27.30;99.90
15143;DHT22;7672;50.834;6.286;2022-09-09T12:00:44;26.90;99.90
15143;DHT22;7672;50.834;6.286;2022-09-09T12:06:31;26.50;99.90
15143;DHT22;7672;50.834;6.286;2022-09-09T12:17:25;26.50;99.90
15143;DHT22;7672;50.834;6.286;2022-09-09T12:20:02;26.40;99.90
15143;DHT22;7672;50.834;6.286;2022-09-09T12:32:00;26.10;99.90
15143;DHT22;7672;50.834;6.286;2022-09-09T12:34:48;26.20;99.90
15143;DHT22;7672;50.834;6.286;2022-09-09T12:37:32;26.10;99.90
15143;DHT22;7672;50.834;6.286;2022-09-09T12:40:31;26.10;99.90
15143;DHT22;7672;50.834;6.286;2022-09-09T12:43:14;25.90;99.90
15143;DHT22;7672;50.834;6.286;2022-09-09T12:45:44;25.90;99.90
15143;DHT22;7672;50.834;6.286;2022-09-09T12:48:12;25.90;99.90
15143;DHT22;7672;50.834;6.286;2022-09-09T12:50:48;25.90;99.90
15143;DHT22;7672;50.834;6.286;2022-09-09T12:53:30;25.90;99.90
15143;DHT22;7672;50.834;6.286;2022-09-09T12:56:05;25.90;99.90
15143;DHT22;7672;50.834;6.286;2022-09-09T12:58:36;25.90;99.90
15143;DHT22;7672;50.834;6.286;2022-09-09T13:01:05;25.90;99.90
15143;DHT22;7672;50.834;6.286;2022-09-09T13:03:42;25.90;99.90
15143;DHT22;7672;50.834;6.286;2022-09-09T13:06:28;26.00;99.90
15143;DHT22;7672;50.834;6.286;2022-09-09T13:09:01;26.00;99.90
15143;DHT22;7672;50.834;6.286;2022-09-09T13:11:41;26.10;99.90
15143;DHT22;7672;50.834;6.286;2022-09-09T13:14:20;26.10;99.90
15143;DHT22;7672;50.834;6.286;2022-09-09T13:16:57;26.20;99.90
15143;DHT22;7672;50.834;6.286;2022-09-09T13:19:32;26.20;99.90
15143;DHT22;7672;50.834;6.286;2022-09-09T13:22:20;26.30;99.90
15143;DHT22;7672;50.834;6.286;2022-09-09T13:25:06;26.30;99.90
15143;DHT22;7672;50.834;6.286;2022-09-09T13:28:00;26.30;99.90
15143;DHT22;7672;50.834;6.286;2022-09-09T13:30:33;26.30;99.90
15143;DHT22;7672;50.834;6.286;2022-09-09T13:36:02;26.40;99.90
15143;DHT22;7672;50.834;6.286;2022-09-09T13:38:36;26.50;99.90
15143;DHT22;7672;50.834;6.286;2022-09-09T13:41:36;26.40;99.90
15143;DHT22;7672;50.834;6.286;2022-09-09T13:44:20;26.70;99.90
15143;DHT22;7672;50.834;6.286;2022-09-09T13:47:19;26.50;99.90
15143;DHT22;7672;50.834;6.286;2022-09-09T13:49:49;26.30;99.90
15143;DHT22;7672;50.834;6.286;2022-09-09T13:52:18;26.30;99.90
15143;DHT22;7672;50.834;6.286;2022-09-09T13:54:49;26.20;99.90
15143;DHT22;7672;50.834;6.286;2022-09-09T13:57:22;26.30;99.90
15143;DHT22;7672;50.834;6.286;2022-09-09T13:59:53;26.00;99.90
15143;DHT22;7672;50.834;6.286;2022-09-09T14:02:36;25.90;99.90
15143;DHT22;7672;50.834;6.286;2022-09-09T14:05:05;25.80;99.90
15143;DHT22;7672;50.834;6.286;2022-09-09T14:07:32;25.60;99.90
15143;DHT22;7672;50.834;6.286;2022-09-09T14:09:59;25.40;99.90
15143;DHT22;7672;50.834;6.286;2022-09-09T14:12:26;25.60;99.90
15143;DHT22;7672;50.834;6.286;2022-09-09T14:14:53;25.30;99.90
15143;DHT22;7672;50.834;6.286;2022-09-09T14:17:20;25.20;99.90
15143;DHT22;7672;50.834;6.286;2022-09-09T14:19:48;25.10;99.90
15143;DHT22;7672;50.834;6.286;2022-09-09T14:22:15;24.90;99.90
15143;DHT22;7672;50.834;6.286;2022-09-09T14:24:42;25.30;99.90
15143;DHT22;7672;50.834;6.286;2022-09-09T14:27:09;25.10;99.90
15143;DHT22;7672;50.834;6.286;2022-09-09T14:29:36;24.80;99.90
15143;DHT22;7672;50.834;6.286;2022-09-09T14:32:03;25.00;99.90
15143;DHT22;7672;50.834;6.286;2022-09-09T14:34:29;24.90;99.90
15143;DHT22;7672;50.834;6.286;2022-09-09T14:36:59;25.30;99.90
15143;DHT22;7672;50.834;6.286;2022-09-09T14:39:27;24.80;99.90
15143;DHT22;7672;50.834;6.286;2022-09-09T14:41:55;24.70;99.90
15143;DHT22;7672;50.834;6.286;2022-09-09T14:44:21;24.30;99.90
15143;DHT22;7672;50.834;6.286;2022-09-09T14:46:48;24.50;99.90
15143;DHT22;7672;50.834;6.286;2022-09-09T14:49:20;24.50;99.90
15143;DHT22;7672;50.834;6.286;2022-09-09T14:51:46;24.40;99.90
15143;DHT22;7672;50.834;6.286;2022-09-09T14:54:13;24.40;99.90
15143;DHT22;7672;50.834;6.286;2022-09-09T14:56:41;24.10;99.90
15143;DHT22;7672;50.834;6.286;2022-09-09T14:59:08;24.10;99.90
15143;DHT22;7672;50.834;6.286;2022-09-09T15:01:34;24.10;99.90
15143;DHT22;7672;50.834;6.286;2022-09-09T15:04:04;24.00;99.90
15143;DHT22;7672;50.834;6.286;2022-09-09T15:06:34;23.90;99.90
15143;DHT22;7672;50.834;6.286;2022-09-09T15:09:04;23.90;99.90
15143;DHT22;7672;50.834;6.286;2022-09-09T15:11:34;23.90;99.90
15143;DHT22;7672;50.834;6.286;2022-09-09T15:14:05;23.80;99.90
15143;DHT22;7672;50.834;6.286;2022-09-09T15:16:34;24.20;99.90
15143;DHT22;7672;50.834;6.286;2022-09-09T15:19:02;23.60;99.90
15143;DHT22;7672;50.834;6.286;2022-09-09T15:21:31;23.60;99.90
15143;DHT22;7672;50.834;6.286;2022-09-09T15:24:00;23.60;99.90
15143;DHT22;7672;50.834;6.286;2022-09-09T15:26:27;23.60;99.90
15143;DHT22;7672;50.834;6.286;2022-09-09T15:28:54;23.50;99.90
15143;DHT22;7672;50.834;6.286;2022-09-09T15:31:23;23.50;99.90
15143;DHT22;7672;50.834;6.286;2022-09-09T15:33:57;23.30;99.90
15143;DHT22;7672;50.834;6.286;2022-09-09T15:36:39;23.60;99.90
15143;DHT22;7672;50.834;6.286;2022-09-09T15:39:12;23.40;99.90
15143;DHT22;7672;50.834;6.286;2022-09-09T15:41:43;23.40;99.90
15143;DHT22;7672;50.834;6.286;2022-09-09T15:44:11;23.20;99.90
15143;DHT22;7672;50.834;6.286;2022-09-09T15:46:39;23.30;99.90
15143;DHT22;7672;50.834;6.286;2022-09-09T15:51:41;23.30;99.90
15143;DHT22;7672;50.834;6.286;2022-09-09T15:54:12;23.50;99.90
15143;DHT22;7672;50.834;6.286;2022-09-09T15:56:46;23.20;99.90
15143;DHT22;7672;50.834;6.286;2022-09-09T15:59:27;23.40;99.90
15143;DHT22;7672;50.834;6.286;2022-09-09T16:01:56;23.30;99.90
15143;DHT22;7672;50.834;6.286;2022-09-09T16:04:24;23.30;99.90
15143;DHT22;7672;50.834;6.286;2022-09-09T16:07:01;23.30;99.90
15143;DHT22;7672;50.834;6.286;2022-09-09T16:09:31;23.30;99.90
15143;DHT22;7672;50.834;6.286;2022-09-09T16:11:59;23.30;99.90
15143;DHT22;7672;50.834;6.286;2022-09-09T16:14:28;23.40;99.90
15143;DHT22;7672;50.834;6.286;2022-09-09T16:17:00;23.40;99.90
15143;DHT22;7672;50.834;6.286;2022-09-09T16:19:27;23.40;99.90
15143;DHT22;7672;50.834;6.286;2022-09-09T16:21:54;23.60;99.90
15143;DHT22;7672;50.834;6.286;2022-09-09T16:24:21;23.40;99.90
15143;DHT22;7672;50.834;6.286;2022-09-09T16:26:52;23.40;99.90
15143;DHT22;7672;50.834;6.286;2022-09-09T16:29:21;23.40;99.90
15143;DHT22;7672;50.834;6.286;2022-09-09T16:31:50;23.40;99.90
15143;DHT22;7672;50.834;6.286;2022-09-09T16:34:18;23.30;99.90
15143;DHT22;7672;50.834;6.286;2022-09-09T16:36:47;23.20;99.90
15143;DHT22;7672;50.834;6.286;2022-09-09T16:39:17;23.20;99.90
15143;DHT22;7672;50.834;6.286;2022-09-09T16:41:47;23.10;99.90
15143;DHT22;7672;50.834;6.286;2022-09-09T16:44:16;23.20;99.90
15143;DHT22;7672;50.834;6.286;2022-09-09T16:46:46;22.90;99.90
15143;DHT22;7672;50.834;6.286;2022-09-09T16:49:15;23.00;99.90
15143;DHT22;7672;50.834;6.286;2022-09-09T16:51:43;22.80;99.90
15143;DHT22;7672;50.834;6.286;2022-09-09T16:54:15;22.70;99.90
15143;DHT22;7672;50.834;6.286;2022-09-09T16:56:45;22.60;99.90
15143;DHT22;7672;50.834;6.286;2022-09-09T16:59:18;22.60;99.90
15143;DHT22;7672;50.834;6.286;2022-09-09T17:01:49;22.40;99.90
15143;DHT22;7672;50.834;6.286;2022-09-09T17:04:20;22.70;99.90
15143;DHT22;7672;50.834;6.286;2022-09-09T17:06:52;22.30;99.90
15143;DHT22;7672;50.834;6.286;2022-09-09T17:09:21;22.40;99.90
15143;DHT22;7672;50.834;6.286;2022-09-09T17:11:49;22.10;99.90
15143;DHT22;7672;50.834;6.286;2022-09-09T17:14:19;22.10;99.90
15143;DHT22;7672;50.834;6.286;2022-09-09T17:16:48;22.00;99.90
15143;DHT22;7672;50.834;6.286;2022-09-09T17:19:15;21.90;99.90
15143;DHT22;7672;50.834;6.286;2022-09-09T17:21:42;21.80;99.90
15143;DHT22;7672;50.834;6.286;2022-09-09T17:24:29;21.80;99.90
15143;DHT22;7672;50.834;6.286;2022-09-09T17:26:56;21.60;99.90
15143;DHT22;7672;50.834;6.286;2022-09-09T17:29:24;21.40;99.90
15143;DHT22;7672;50.834;6.286;2022-09-09T17:31:51;21.50;99.90
15143;DHT22;7672;50.834;6.286;2022-09-09T17:34:18;21.40;99.90
15143;DHT22;7672;50.834;6.286;2022-09-09T17:36:45;21.30;99.90
15143;DHT22;7672;50.834;6.286;2022-09-09T17:39:12;21.20;99.90
15143;DHT22;7672;50.834;6.286;2022-09-09T17:41:39;21.10;99.90
15143;DHT22;7672;50.834;6.286;2022-09-09T17:44:07;21.00;99.90
15143;DHT22;7672;50.834;6.286;2022-09-09T17:46:38;20.90;99.90
15143;DHT22;7672;50.834;6.286;2022-09-09T17:49:10;20.80;99.90
15143;DHT22;7672;50.834;6.286;2022-09-09T17:51:40;20.80;99.90
15143;DHT22;7672;50.834;6.286;2022-09-09T17:54:14;20.70;99.90
15143;DHT22;7672;50.834;6.286;2022-09-09T17:56:43;20.90;99.90
15143;DHT22;7672;50.834;6.286;2022-09-09T17:59:12;20.50;99.90
15143;DHT22;7672;50.834;6.286;2022-09-09T18:01:42;20.50;99.90
15143;DHT22;7672;50.834;6.286;2022-09-09T18:04:11;20.40;99.90
15143;DHT22;7672;50.834;6.286;2022-09-09T18:06:42;20.30;99.90
15143;DHT22;7672;50.834;6.286;2022-09-09T18:09:19;20.30;99.90
15143;DHT22;7672;50.834;6.286;2022-09-09T18:11:50;20.20;99.90
15143;DHT22;7672;50.834;6.286;2022-09-09T18:14:24;20.60;99.90
15143;DHT22;7672;50.834;6.286;2022-09-09T18:16:56;20.20;99.90
15143;DHT22;7672;50.834;6.286;2022-09-09T18:19:27;20.00;99.90
15143;DHT22;7672;50.834;6.286;2022-09-09T18:21:56;20.00;99.90
15143;DHT22;7672;50.834;6.286;2022-09-09T18:24:28;19.90;99.90
15143;DHT22;7672;50.834;6.286;2022-09-09T18:26:55;19.90;99.90
15143;DHT22;7672;50.834;6.286;2022-09-09T18:29:23;19.70;99.90
15143;DHT22;7672;50.834;6.286;2022-09-09T18:31:54;19.80;99.90
15143;DHT22;7672;50.834;6.286;2022-09-09T18:34:22;19.80;99.90